Accueil
METAR-TAF:

METAR-TAF

Aéroports :

Gilmer Municipal Airport (Fox Stephens Field)

Gilmer, Texas, États-Unis

latitude: 32-41-56N, longitude: 094-56-55W, altitude: 127 m

Observation

Le bulletin a été fait il y a 18 minutes, à 20:15 UTC
Vent 6 kt de nord/nord-est
Température 30°C
Humidité 52%
Pression 1016 hPa
Visibilité: 16.1 km
Ciel clair

METAR: KJXI 212015Z AUTO 02006KT 10SM CLR 30/19 A2999 RMK AO2 T03030193

Heure: 15:33 (20:33 UTC)


TAF: absent

Observations et prévisions météorologiques de plus de 4000 aéroports (messages METAR et TAF).

Les stations disponibles sont représentées par des disques jaunes et rouges sur la carte.

Passer la souris dessus pour voir le nom de la station.

Cliquer dessus pour voir les observations et prévisions météorologiques.

Pour changer de carte: cliquez sur les boutons verts avec une croix noire pour zoomer, sur le bouton vert avec un tiret pour effectuer un zoom arrière, ou sur les flèches vertes pour les cartes adjacentes.


METAR-TAF: